Time;durP1;ratioP1;P1;durP2;ratioP2;P2;SDS_P1;SDS_P2;PMS_P1;PMS_P2;Temp;Humidity;BMP_temperature;BMP_pressure;BME280_temperature;BME280_humidity;BME280_pressure;Samples;Min_cycle;Max_cycle;Signal;HPM_P1;HPM_P2
2024/04/20 00:02:03;;;;;;;4.15;1.60;;;;;;;6.93;100.00;100775.66;6776786;26;20328;-77
2024/04/20 00:05:06;;;;;;;2.22;1.45;;;;;;;6.90;100.00;100788.81;6777214;26;19995;-78
2024/04/20 00:08:09;;;;;;;9.30;1.85;;;;;;;6.86;100.00;100785.50;6776796;26;20618;-76
2024/04/20 00:11:12;;;;;;;1.85;1.40;;;;;;;6.88;100.00;100796.72;6777226;26;20005;-77
2024/04/20 00:14:18;;;;;;;4.47;1.73;;;;;;;6.84;100.00;100798.59;6776847;26;19991;-77
2024/04/20 00:17:21;;;;;;;3.85;1.58;;;;;;;6.94;100.00;100803.47;6777123;26;19995;-76
2024/04/20 00:20:25;;;;;;;2.83;1.48;;;;;;;6.92;100.00;100810.53;6776519;26;20003;-78
2024/04/20 00:23:28;;;;;;;2.90;1.50;;;;;;;6.90;100.00;100817.56;6776588;26;19999;-78
2024/04/20 00:26:31;;;;;;;4.60;1.60;;;;;;;6.90;100.00;100822.78;6776705;26;19991;-78
2024/04/20 00:29:37;;;;;;;2.20;1.52;;;;;;;6.91;100.00;100824.50;6776519;26;19994;-78
2024/04/20 00:32:40;;;;;;;3.03;1.58;;;;;;;6.95;100.00;100832.19;6776566;26;20047;-76
2024/04/20 00:35:43;;;;;;;2.72;1.50;;;;;;;6.92;100.00;100834.88;6776719;26;20006;-77
2024/04/20 00:38:46;;;;;;;2.03;1.30;;;;;;;6.93;100.00;100833.97;6776428;26;19995;-77
2024/04/20 00:41:49;;;;;;;4.43;1.98;;;;;;;6.99;100.00;100843.34;6776293;26;19994;-77
2024/04/20 00:44:55;;;;;;;4.93;1.25;;;;;;;6.94;100.00;100851.34;6776687;26;20089;-77
2024/04/20 00:47:58;;;;;;;4.93;1.38;;;;;;;7.04;100.00;100854.47;6776043;26;20067;-77
2024/04/20 00:51:01;;;;;;;2.95;1.27;;;;;;;6.91;100.00;100859.31;6776351;26;19995;-76
2024/04/20 00:54:06;;;;;;;3.22;1.70;;;;;;;6.98;100.00;100863.41;6776118;26;20004;-77
2024/04/20 00:57:09;;;;;;;2.53;1.38;;;;;;;6.97;100.00;100872.16;6775943;26;19995;-76
2024/04/20 01:00:15;;;;;;;2.72;1.30;;;;;;;6.96;100.00;100878.28;6776248;26;20006;-78
2024/04/20 01:03:18;;;;;;;1.70;1.10;;;;;;;6.93;100.00;100883.63;6776405;26;20044;-77
2024/04/20 01:06:21;;;;;;;3.65;1.13;;;;;;;6.97;100.00;100882.59;6775784;26;20036;-78
2024/04/20 01:09:24;;;;;;;3.92;1.30;;;;;;;6.91;100.00;100892.44;6776047;26;19998;-77
2024/04/20 01:12:27;;;;;;;3.72;1.63;;;;;;;7.02;100.00;100888.50;6776126;26;20355;-77
2024/04/20 01:15:33;;;;;;;2.33;1.50;;;;;;;7.04;100.00;100885.81;6775772;26;20002;-77
2024/04/20 01:18:36;;;;;;;4.15;1.63;;;;;;;6.86;100.00;100893.44;6775847;26;20019;-77
2024/04/20 01:21:39;;;;;;;2.67;1.27;;;;;;;6.97;100.00;100911.34;6775527;26;20363;-77
2024/04/20 01:24:44;;;;;;;2.03;1.20;;;;;;;6.96;100.00;100900.94;6776252;26;20420;-77
2024/04/20 01:27:49;;;;;;;2.80;1.20;;;;;;;6.91;100.00;100913.34;6775797;26;19990;-77
2024/04/20 01:30:52;;;;;;;5.60;1.23;;;;;;;6.86;100.00;100916.09;6774749;26;20054;-78
2024/04/20 01:33:55;;;;;;;1.63;0.85;;;;;;;6.96;100.00;100920.09;6775280;26;20367;-77
2024/04/20 01:36:58;;;;;;;2.70;0.93;;;;;;;6.99;100.00;100912.13;6775371;26;19991;-77
2024/04/20 01:40:01;;;;;;;1.77;0.80;;;;;;;7.00;100.00;100920.84;6775535;26;19994;-78
2024/04/20 01:43:07;;;;;;;3.47;1.55;;;;;;;6.92;100.00;100921.09;6775366;26;19995;-77
2024/04/20 01:46:10;;;;;;;1.33;1.00;;;;;;;6.90;100.00;100927.28;6775352;26;20055;-78
2024/04/20 01:49:13;;;;;;;4.75;1.08;;;;;;;6.81;100.00;100931.94;6775253;26;19991;-77
2024/04/20 01:52:16;;;;;;;3.00;0.75;;;;;;;6.92;100.00;100939.38;6775133;26;19995;-77
2024/04/20 01:55:19;;;;;;;2.20;1.10;;;;;;;6.96;100.00;100940.13;6775226;26;20001;-77
2024/04/20 01:58:24;;;;;;;2.08;1.48;;;;;;;7.01;100.00;100941.69;6775279;26;20003;-77
2024/04/20 02:01:31;;;;;;;2.55;1.50;;;;;;;7.02;100.00;100942.53;6774909;26;20308;-77
2024/04/20 02:04:34;;;;;;;2.15;0.85;;;;;;;7.04;100.00;100943.31;6774982;26;20267;-77
2024/04/20 02:07:37;;;;;;;2.03;1.00;;;;;;;6.98;100.00;100952.22;6774849;26;20020;-77
2024/04/20 02:10:40;;;;;;;1.10;0.80;;;;;;;6.97;100.00;100958.38;6774809;26;19995;-76
2024/04/20 02:13:45;;;;;;;1.10;0.65;;;;;;;6.90;100.00;100959.47;6774700;26;19991;-77
2024/04/20 02:16:48;;;;;;;1.85;0.70;;;;;;;7.05;100.00;100956.34;6773255;26;20006;-76
2024/04/20 02:19:51;;;;;;;1.50;0.88;;;;;;;7.09;100.00;100967.53;6774660;26;20002;-76
2024/04/20 02:22:54;;;;;;;2.35;0.70;;;;;;;7.09;100.00;100968.41;6774761;26;19998;-77
2024/04/20 02:25:57;;;;;;;2.22;0.90;;;;;;;7.00;100.00;100973.09;6774075;26;20013;-78
2024/04/20 02:29:03;;;;;;;1.17;0.60;;;;;;;6.96;100.00;100980.19;6774695;26;20005;-76
2024/04/20 02:32:07;;;;;;;1.10;0.75;;;;;;;6.88;100.00;100971.75;6773764;26;20003;-77
2024/04/20 02:35:10;;;;;;;2.03;0.90;;;;;;;6.89;100.00;100983.91;6774162;26;20001;-77
2024/04/20 02:38:13;;;;;;;2.83;0.55;;;;;;;6.85;100.00;100982.28;6774084;26;20002;-77
2024/04/20 02:41:16;;;;;;;1.00;0.60;;;;;;;6.82;100.00;100991.09;6774145;26;20002;-77
2024/04/20 02:44:21;;;;;;;2.55;1.00;;;;;;;6.86;100.00;100992.72;6776928;26;20002;-77
2024/04/20 02:47:24;;;;;;;1.42;0.80;;;;;;;6.79;100.00;101000.78;6778365;26;20002;-76
2024/04/20 02:50:27;;;;;;;2.00;0.70;;;;;;;6.74;100.00;101008.78;6778433;26;20377;-76
2024/04/20 02:53:30;;;;;;;1.77;0.65;;;;;;;6.73;100.00;101008.84;6778192;26;20001;-76
2024/04/20 02:56:33;;;;;;;1.77;0.68;;;;;;;6.71;100.00;101014.09;6778410;26;19995;-77
2024/04/20 02:59:38;;;;;;;1.75;1.05;;;;;;;6.72;100.00;101023.66;6778057;26;19994;-76
2024/04/20 03:02:42;;;;;;;2.08;0.73;;;;;;;6.71;100.00;101021.09;6778256;26;20253;-76
2024/04/20 03:05:45;;;;;;;2.10;0.90;;;;;;;6.55;100.00;101029.44;6778218;26;19995;-76
2024/04/20 03:08:48;;;;;;;1.45;0.70;;;;;;;6.52;100.00;101023.44;6778089;26;20005;-76
2024/04/20 03:11:51;;;;;;;1.02;0.65;;;;;;;6.49;100.00;101033.97;6778006;26;20032;-76
2024/04/20 03:14:56;;;;;;;2.05;1.05;;;;;;;6.41;100.00;101033.38;6777875;26;20007;-77
2024/04/20 03:17:59;;;;;;;1.30;0.90;;;;;;;6.33;100.00;101033.63;6777720;26;20264;-76
2024/04/20 03:21:02;;;;;;;0.98;0.73;;;;;;;6.30;100.00;101037.16;6777940;26;19995;-77
2024/04/20 03:24:05;;;;;;;1.00;0.60;;;;;;;6.27;100.00;101042.50;6777660;26;19999;-77
2024/04/20 03:27:08;;;;;;;1.70;1.00;;;;;;;6.26;100.00;101045.13;6778070;26;19991;-77
2024/04/20 03:30:14;;;;;;;2.28;1.00;;;;;;;6.21;100.00;101047.88;6777540;26;19995;-77
2024/04/20 03:33:20;;;;;;;2.33;0.88;;;;;;;6.19;100.00;101054.91;6777513;26;20058;-76
2024/04/20 03:36:23;;;;;;;3.03;0.90;;;;;;;6.15;100.00;101061.13;6777415;26;20010;-77
2024/04/20 03:39:26;;;;;;;1.35;0.70;;;;;;;6.07;100.00;101065.72;6777550;26;20005;-77
2024/04/20 03:42:30;;;;;;;0.65;0.50;;;;;;;6.04;100.00;101057.97;6777338;26;20375;-76
2024/04/20 03:45:35;;;;;;;0.82;0.73;;;;;;;5.99;100.00;101065.94;6777412;26;20009;-77
2024/04/20 03:48:38;;;;;;;19.75;7.93;;;;;;;5.93;100.00;101076.56;6777156;26;20408;-77
2024/04/20 03:51:41;;;;;;;4.70;1.48;;;;;;;5.96;100.00;101083.44;6777361;26;20001;-76
2024/04/20 03:54:44;;;;;;;1.08;0.70;;;;;;;5.89;100.00;101084.47;6776727;26;20005;-77
2024/04/20 03:57:48;;;;;;;2.80;0.90;;;;;;;5.87;100.00;101092.34;6777001;26;20005;-75
2024/04/20 04:00:53;;;;;;;0.98;0.80;;;;;;;5.84;100.00;101095.88;6776974;26;20383;-74
2024/04/20 04:03:56;;;;;;;8.45;3.03;;;;;;;5.84;100.00;101097.66;6777358;26;20373;-74
2024/04/20 04:06:59;;;;;;;2.95;1.50;;;;;;;5.73;100.00;101097.97;6776897;26;20001;-74
2024/04/20 04:10:02;;;;;;;1.85;0.80;;;;;;;5.72;100.00;101103.19;6777031;26;19995;-74
2024/04/20 04:13:05;;;;;;;1.73;1.08;;;;;;;5.74;100.00;101114.47;6776715;26;20359;-74
2024/04/20 04:16:11;;;;;;;0.73;0.70;;;;;;;5.63;100.00;101114.72;6776565;26;20006;-74
2024/04/20 04:19:14;;;;;;;1.95;0.82;;;;;;;5.57;100.00;101131.41;6777019;26;19998;-74
2024/04/20 04:22:17;;;;;;;1.58;0.80;;;;;;;5.62;100.00;101133.88;6776966;26;20001;-73
2024/04/20 04:25:20;;;;;;;2.17;1.02;;;;;;;5.57;100.00;101141.81;6777228;26;20009;-74
2024/04/20 04:28:23;;;;;;;1.98;1.15;;;;;;;5.52;100.00;101148.06;6776380;26;20373;-75
2024/04/20 04:31:29;;;;;;;3.95;1.45;;;;;;;5.50;100.00;101153.31;6776630;26;20010;-74
2024/04/20 04:34:32;;;;;;;2.25;0.80;;;;;;;5.57;100.00;101156.63;6776631;26;19994;-74
2024/04/20 04:37:35;;;;;;;1.67;0.88;;;;;;;5.56;100.00;101166.19;6776283;26;20260;-74
2024/04/20 04:40:38;;;;;;;1.00;0.70;;;;;;;5.54;100.00;101164.50;6776515;26;19991;-74
2024/04/20 04:43:41;;;;;;;1.38;0.90;;;;;;;5.46;100.00;101175.16;6776264;26;19995;-75
2024/04/20 04:46:47;;;;;;;1.02;0.80;;;;;;;5.43;100.00;101182.19;6776097;26;20524;-74
2024/04/20 04:49:50;;;;;;;1.80;1.00;;;;;;;5.44;100.00;101189.09;6776785;26;19991;-74
2024/04/20 04:52:53;;;;;;;1.23;0.70;;;;;;;5.49;100.00;101195.03;6776067;26;19995;-74
2024/04/20 04:55:56;;;;;;;5.57;1.00;;;;;;;5.50;100.00;101192.44;6776049;26;20001;-74
2024/04/20 04:59:00;;;;;;;1.85;0.90;;;;;;;5.45;100.00;101202.13;6775850;26;20005;-75
2024/04/20 05:02:06;;;;;;;3.92;1.25;;;;;;;5.45;100.00;101207.31;6776285;26;20009;-74
2024/04/20 05:05:09;;;;;;;4.13;1.00;;;;;;;5.48;100.00;101208.97;6775068;26;19999;-74
2024/04/20 05:08:12;;;;;;;1.15;0.77;;;;;;;5.40;100.00;101216.13;6775603;26;20032;-74
2024/04/20 05:11:15;;;;;;;3.13;1.20;;;;;;;5.43;100.00;101222.13;6775844;26;20063;-74
2024/04/20 05:14:18;;;;;;;7.15;0.80;;;;;;;5.54;100.00;101221.84;6776015;26;19995;-74
2024/04/20 05:17:23;;;;;;;3.08;0.95;;;;;;;5.61;100.00;101226.03;6775877;26;20053;-75
2024/04/20 05:20:26;;;;;;;1.48;0.80;;;;;;;5.66;100.00;101228.53;6775841;26;19991;-75
2024/04/20 05:23:29;;;;;;;2.38;1.20;;;;;;;5.61;100.00;101231.25;6775402;26;19995;-75
2024/04/20 05:26:32;;;;;;;1.67;1.02;;;;;;;5.68;100.00;101227.59;6775741;26;19998;-74
2024/04/20 05:29:35;;;;;;;2.08;1.13;;;;;;;5.64;100.00;101238.16;6775349;26;19999;-74
2024/04/20 05:32:41;;;;;;;2.35;0.80;;;;;;;5.73;100.00;101243.97;6775607;26;19990;-74
2024/04/20 05:35:44;;;;;;;1.55;1.17;;;;;;;5.75;100.00;101247.41;6775725;26;19994;-74
2024/04/20 05:38:47;;;;;;;2.75;0.93;;;;;;;5.79;100.00;101245.56;6775138;26;19995;-74
2024/04/20 05:41:50;;;;;;;0.95;0.88;;;;;;;5.84;100.00;101252.38;6775055;26;20007;-75
2024/04/20 05:44:55;;;;;;;2.58;0.73;;;;;;;5.95;100.00;101256.47;6775634;26;19991;-75
2024/04/20 05:48:01;;;;;;;0.88;0.50;;;;;;;5.96;100.00;101269.50;6775328;26;20055;-76
2024/04/20 05:51:04;;;;;;;2.60;0.80;;;;;;;6.02;100.00;101271.09;6775287;26;20043;-75
2024/04/20 05:54:07;;;;;;;1.67;0.85;;;;;;;6.05;100.00;101276.25;6775067;26;19991;-76
2024/04/20 05:57:10;;;;;;;2.28;0.65;;;;;;;6.09;100.00;101273.50;6774870;26;20006;-76
2024/04/20 06:00:15;;;;;;;1.85;1.02;;;;;;;6.15;97.87;101284.69;6775041;26;20001;-76
2024/04/20 06:03:22;;;;;;;5.35;0.80;;;;;;;6.23;96.31;101287.94;6774830;26;20650;-76
2024/04/20 06:06:25;;;;;;;1.17;0.70;;;;;;;6.22;98.33;101294.94;6774769;26;19990;-75
2024/04/20 06:09:28;;;;;;;3.00;1.10;;;;;;;6.24;97.94;101302.72;6774813;26;20002;-75
2024/04/20 06:12:31;;;;;;;1.10;0.80;;;;;;;6.28;99.22;101301.72;6774432;26;19999;-75
2024/04/20 06:15:34;;;;;;;1.00;0.82;;;;;;;6.25;100.00;101309.63;6774800;26;20001;-75
2024/04/20 06:18:39;;;;;;;0.88;0.80;;;;;;;6.26;99.77;101314.81;6773927;26;19995;-75
2024/04/20 06:21:42;;;;;;;2.17;1.25;;;;;;;6.31;99.87;101315.56;6774803;26;19990;-75
2024/04/20 06:24:47;;;;;;;2.55;1.00;;;;;;;6.46;94.53;101316.91;6774482;26;19995;-75
2024/04/20 06:27:50;;;;;;;4.57;1.83;;;;;;;6.51;97.38;101325.47;6774689;26;19991;-75
2024/04/20 06:30:55;;;;;;;0.57;0.52;;;;;;;6.59;96.49;101322.66;6774313;26;19991;-75
2024/04/20 06:34:01;;;;;;;2.35;0.80;;;;;;;6.63;97.29;101324.25;6774174;26;19995;-75
2024/04/20 06:37:06;;;;;;;4.00;1.05;;;;;;;6.67;98.74;101330.25;6774306;26;19991;-75
2024/04/20 06:40:09;;;;;;;0.98;0.60;;;;;;;6.73;94.19;101328.34;6774176;26;20286;-75
2024/04/20 06:43:12;;;;;;;1.80;0.70;;;;;;;6.75;93.89;101326.53;6773804;26;19991;-75
2024/04/20 06:46:15;;;;;;;1.88;1.20;;;;;;;6.83;94.59;101332.41;6773833;26;20020;-76
2024/04/20 06:49:21;;;;;;;4.03;1.67;;;;;;;6.88;94.19;101334.88;6773332;26;19994;-75
2024/04/20 06:52:24;;;;;;;1.73;0.75;;;;;;;6.93;90.44;101338.22;6773736;26;19991;-75
2024/04/20 06:55:27;;;;;;;1.02;0.73;;;;;;;7.06;91.25;101342.19;6773790;26;19998;-75
2024/04/20 06:58:30;;;;;;;0.90;0.70;;;;;;;7.21;89.37;101343.47;6773428;26;20052;-75
2024/04/20 07:01:33;;;;;;;3.28;1.27;;;;;;;7.15;92.33;101346.28;6773532;26;19995;-76
2024/04/20 07:04:38;;;;;;;3.03;1.15;;;;;;;7.24;91.97;101343.41;6773764;26;20267;-75
2024/04/20 07:07:41;;;;;;;1.58;0.93;;;;;;;7.33;90.75;101356.19;6773919;26;20352;-75
2024/04/20 07:10:54;;;;;;;3.38;0.88;;;;;;;7.42;84.50;101357.69;6773558;26;19990;-76
2024/04/20 07:13:57;;;;;;;1.27;0.73;;;;;;;7.44;83.29;101357.63;6773428;26;19995;-75
2024/04/20 07:17:00;;;;;;;1.73;0.70;;;;;;;7.51;83.00;101367.84;6773098;26;19994;-76
2024/04/20 07:20:06;;;;;;;5.38;0.90;;;;;;;7.49;86.09;101379.25;6773430;26;20373;-75
2024/04/20 07:23:09;;;;;;;0.70;0.57;;;;;;;7.43;83.86;101384.69;6773111;26;20067;-74
2024/04/20 07:26:12;;;;;;;1.67;1.40;;;;;;;7.53;83.27;101378.25;6773025;26;20369;-75
2024/04/20 07:29:15;;;;;;;0.90;0.73;;;;;;;7.74;81.79;101388.06;6774535;26;20005;-74
2024/04/20 07:32:18;;;;;;;1.85;1.00;;;;;;;7.74;87.12;101400.31;6777988;26;20001;-75
2024/04/20 07:35:24;;;;;;;1.35;0.77;;;;;;;7.85;85.29;101396.44;6778041;26;20564;-75
2024/04/20 07:38:27;;;;;;;2.40;0.85;;;;;;;7.97;81.57;101400.44;6777459;26;20018;-75
2024/04/20 07:41:30;;;;;;;1.50;0.77;;;;;;;8.06;84.68;101414.97;6777173;26;19994;-75
2024/04/20 07:44:33;;;;;;;1.77;1.00;;;;;;;8.17;78.16;101417.25;6777807;26;20055;-76
2024/04/20 07:47:37;;;;;;;1.75;1.00;;;;;;;8.14;78.74;101410.38;6777190;26;20059;-75
2024/04/20 07:50:42;;;;;;;1.90;1.17;;;;;;;8.10;78.31;101416.59;6777319;26;20258;-75
2024/04/20 07:53:45;;;;;;;1.95;1.10;;;;;;;8.14;78.76;101424.31;6777041;26;20432;-76
2024/04/20 07:56:48;;;;;;;1.95;0.90;;;;;;;8.20;74.42;101418.00;6776801;26;19994;-75
2024/04/20 07:59:51;;;;;;;2.25;1.23;;;;;;;8.14;73.76;101424.31;6777195;26;19991;-75
2024/04/20 08:02:55;;;;;;;4.32;1.23;;;;;;;8.23;77.53;101427.53;6777021;26;20006;-75
2024/04/20 08:06:01;;;;;;;3.70;0.98;;;;;;;8.26;75.29;101433.50;6776795;26;20366;-75
2024/04/20 08:09:04;;;;;;;1.67;0.70;;;;;;;8.29;79.61;101424.72;6776804;26;20001;-75
2024/04/20 08:12:08;;;;;;;3.55;1.02;;;;;;;8.35;76.32;101437.59;6776699;26;19995;-75
2024/04/20 08:15:11;;;;;;;2.72;0.98;;;;;;;8.41;72.36;101442.69;6776870;26;20043;-75
2024/04/20 08:18:14;;;;;;;1.80;1.00;;;;;;;8.50;71.95;101434.50;6776480;26;19987;-75
2024/04/20 08:21:20;;;;;;;1.33;1.02;;;;;;;8.59;73.98;101442.06;6776637;26;20387;-75
2024/04/20 08:24:23;;;;;;;1.10;0.80;;;;;;;8.82;72.93;101443.03;6776960;26;20001;-75
2024/04/20 08:27:26;;;;;;;1.25;0.95;;;;;;;8.88;69.10;101445.44;6776291;26;19995;-76
2024/04/20 08:30:29;;;;;;;1.20;0.90;;;;;;;9.00;69.43;101452.88;6776552;26;20415;-75
2024/04/20 08:33:33;;;;;;;2.05;1.02;;;;;;;9.04;71.11;101454.47;6776305;26;19990;-75
2024/04/20 08:36:39;;;;;;;1.85;1.15;;;;;;;8.98;69.00;101454.66;6776106;26;20355;-76
2024/04/20 08:39:42;;;;;;;1.45;1.20;;;;;;;9.03;67.76;101455.38;6776365;26;20427;-75
2024/04/20 08:42:45;;;;;;;2.40;1.15;;;;;;;9.14;66.52;101463.72;6775927;26;19995;-75
2024/04/20 08:45:53;;;;;;;2.97;0.90;;;;;;;9.15;62.71;101473.28;6775793;26;19990;-75
2024/04/20 08:48:57;;;;;;;1.75;1.20;;;;;;;9.27;65.28;101471.16;6776037;26;19991;-75
2024/04/20 08:52:02;;;;;;;1.08;0.80;;;;;;;9.28;64.30;101468.47;6775127;26;20282;-75
2024/04/20 08:55:07;;;;;;;1.35;0.90;;;;;;;9.37;63.93;101470.75;6775904;26;19999;-75
2024/04/20 08:58:10;;;;;;;1.70;0.95;;;;;;;9.66;61.93;101474.91;6775634;26;20056;-75
2024/04/20 09:01:15;;;;;;;1.95;1.10;;;;;;;9.73;57.59;101482.56;6775780;26;20055;-75
2024/04/20 09:04:18;;;;;;;1.65;0.63;;;;;;;9.75;60.75;101484.19;6776132;26;19998;-75
2024/04/20 09:07:26;;;;;;;2.67;1.00;;;;;;;9.72;64.58;101486.06;6775823;26;20001;-75
2024/04/20 09:10:29;;;;;;;8.30;2.10;;;;;;;9.81;60.84;101494.47;6775858;26;20056;-74
2024/04/20 09:13:32;;;;;;;1.63;1.10;;;;;;;9.99;59.57;101486.78;6775906;26;20005;-75
2024/04/20 09:16:37;;;;;;;1.52;1.20;;;;;;;9.90;60.77;101488.88;6775312;26;19999;-76
2024/04/20 09:19:40;;;;;;;1.13;0.80;;;;;;;10.01;57.06;101496.31;6775815;26;19995;-75
2024/04/20 09:22:45;;;;;;;2.15;1.25;;;;;;;9.89;57.21;101497.66;6775433;26;20036;-76
2024/04/20 09:25:52;;;;;;;1.80;0.98;;;;;;;9.96;55.69;101508.78;6775620;26;19998;-75
2024/04/20 09:28:59;;;;;;;3.30;1.15;;;;;;;9.99;55.34;101497.28;6775535;26;19997;-75
2024/04/20 09:32:02;;;;;;;2.83;1.20;;;;;;;10.12;53.16;101507.25;6775401;26;19998;-75
2024/04/20 09:35:06;;;;;;;1.27;1.08;;;;;;;10.05;54.27;101507.56;6775396;26;19991;-75
2024/04/20 09:38:12;;;;;;;1.08;0.88;;;;;;;10.10;50.26;101500.38;6775074;26;20001;-75
2024/04/20 09:41:17;;;;;;;1.45;1.00;;;;;;;9.99;55.25;101511.31;6775519;26;19995;-76
2024/04/20 09:44:21;;;;;;;1.52;0.90;;;;;;;10.06;56.38;101519.78;6775571;26;20260;-75
2024/04/20 09:47:27;;;;;;;1.50;0.80;;;;;;;10.10;55.19;101519.59;6775450;26;20005;-76
2024/04/20 09:50:31;;;;;;;0.60;0.60;;;;;;;10.34;53.46;101527.47;6774737;26;19999;-76
2024/04/20 09:53:37;;;;;;;1.52;0.80;;;;;;;10.32;49.52;101529.31;6774041;26;20036;-76
2024/04/20 09:56:40;;;;;;;1.42;0.80;;;;;;;10.04;50.59;101527.72;6775452;26;19991;-77
2024/04/20 09:59:45;;;;;;;4.38;0.95;;;;;;;9.78;51.38;101539.22;6775315;26;19995;-79
2024/04/20 10:02:49;;;;;;;0.88;0.50;;;;;;;9.82;51.54;101539.97;6774900;26;20043;-77
2024/04/20 10:05:54;;;;;;;0.95;0.60;;;;;;;9.75;50.18;101549.81;6775034;26;20009;-78
2024/04/20 10:09:00;;;;;;;2.92;0.75;;;;;;;9.65;51.74;101540.56;6774906;26;20371;-77
2024/04/20 10:12:04;;;;;;;1.48;0.52;;;;;;;9.76;51.32;101540.16;6774803;26;20032;-78
2024/04/20 10:15:08;;;;;;;1.02;0.60;;;;;;;9.96;52.43;101542.91;6774814;26;20007;-77
2024/04/20 10:18:11;;;;;;;1.30;0.50;;;;;;;10.11;51.37;101549.34;6774507;26;20007;-77
2024/04/20 10:21:14;;;;;;;0.63;0.60;;;;;;;10.25;50.75;101544.44;6774486;26;19991;-78
2024/04/20 10:24:20;;;;;;;1.17;0.68;;;;;;;10.27;49.42;101540.00;6774581;26;19995;-77
2024/04/20 10:27:27;;;;;;;1.23;0.47;;;;;;;10.32;53.58;101532.78;6774470;26;19998;-78
2024/04/20 10:30:30;;;;;;;2.15;0.63;;;;;;;10.44;50.39;101533.19;6774383;26;19991;-77
2024/04/20 10:33:34;;;;;;;1.65;0.60;;;;;;;10.47;53.49;101531.31;6774159;26;20059;-78
2024/04/20 10:36:37;;;;;;;2.20;0.73;;;;;;;10.62;52.38;101535.94;6774236;26;19999;-81
2024/04/20 10:39:43;;;;;;;1.60;0.90;;;;;;;10.90;51.89;101540.06;6774018;26;20031;-78
2024/04/20 10:42:46;;;;;;;3.65;0.90;;;;;;;10.90;51.77;101538.31;6774074;26;20081;-78
2024/04/20 10:46:00;;;;;;;1.15;0.90;;;;;;;11.02;54.23;101533.44;6773973;26;19997;-78
2024/04/20 10:49:04;;;;;;;1.52;0.93;;;;;;;10.91;51.76;101532.13;6774400;26;19999;-79
2024/04/20 10:52:11;;;;;;;1.75;1.10;;;;;;;11.06;51.99;101540.28;6773933;26;19991;-78
2024/04/20 10:55:17;;;;;;;1.67;0.90;;;;;;;10.89;52.91;101544.47;6774014;26;19995;-78
2024/04/20 10:58:20;;;;;;;2.65;0.95;;;;;;;10.92;55.38;101540.84;6773410;26;19995;-77
2024/04/20 11:01:23;;;;;;;0.80;0.80;;;;;;;11.10;55.30;101544.50;6773401;26;20002;-78
2024/04/20 11:04:27;;;;;;;1.42;1.00;;;;;;;11.20;52.78;101540.53;6775269;26;20055;-77
2024/04/20 11:07:30;;;;;;;3.03;1.08;;;;;;;11.01;55.44;101540.47;6777868;26;20001;-77
2024/04/20 11:10:36;;;;;;;3.25;1.23;;;;;;;11.12;58.96;101537.38;6778004;26;20051;-78
2024/04/20 11:13:41;;;;;;;1.73;1.33;;;;;;;11.48;55.51;101545.44;6777934;26;19990;-78
2024/04/20 11:16:44;;;;;;;1.98;1.40;;;;;;;11.51;55.76;101553.22;6777770;26;20018;-77
2024/04/20 11:19:47;;;;;;;2.00;1.13;;;;;;;11.46;57.13;101542.03;6777851;26;20369;-77
2024/04/20 11:22:50;;;;;;;1.77;1.30;;;;;;;11.53;54.92;101547.88;6777689;26;19994;-79
2024/04/20 11:25:56;;;;;;;1.58;1.10;;;;;;;11.41;58.41;101542.25;6777865;26;20003;-78
2024/04/20 11:29:01;;;;;;;2.15;1.27;;;;;;;11.41;54.89;101539.59;6777721;26;19991;-78
2024/04/20 11:32:04;;;;;;;2.47;1.17;;;;;;;11.44;58.35;101554.38;6777711;26;20001;-77
2024/04/20 11:35:10;;;;;;;3.03;1.83;;;;;;;11.59;57.22;101552.88;6777701;26;19991;-78
2024/04/20 11:38:16;;;;;;;2.67;1.50;;;;;;;11.61;59.17;101551.03;6777752;26;20051;-77
2024/04/20 11:41:26;;;;;;;4.32;1.50;;;;;;;11.41;56.58;101555.41;6777538;26;20009;-77
2024/04/20 11:44:29;;;;;;;3.17;1.60;;;;;;;11.29;58.98;101552.44;6777875;26;19994;-77
2024/04/20 11:47:32;;;;;;;3.78;1.50;;;;;;;10.95;59.90;101551.25;6777343;26;20001;-77
2024/04/20 11:50:35;;;;;;;6.30;1.60;;;;;;;10.85;59.99;101549.91;6777227;26;19995;-78
2024/04/20 11:56:59;;;;;;;;;;;;;;;10.79;61.99;101558.91;6780949;26;19999;-78
2024/04/20 12:00:05;;;;;;;1.30;1.10;;;;;;;10.83;61.13;101562.28;6777626;26;19935;-78
2024/04/20 12:03:08;;;;;;;2.95;1.40;;;;;;;10.72;64.08;101565.34;6777155;26;19986;-77
2024/04/20 12:06:12;;;;;;;1.90;1.30;;;;;;;10.62;68.11;101561.38;6777249;26;20002;-78
2024/04/20 12:09:15;;;;;;;4.60;1.55;;;;;;;10.58;70.34;101562.41;6777355;26;19999;-77
2024/04/20 12:12:21;;;;;;;4.65;1.75;;;;;;;10.50;70.96;101554.00;6776860;26;20002;-78
2024/04/20 12:15:24;;;;;;;3.03;1.70;;;;;;;10.64;69.24;101562.19;6776499;26;20006;-77
2024/04/20 12:18:27;;;;;;;2.25;1.38;;;;;;;10.68;69.83;101563.78;6776806;26;19991;-77
2024/04/20 12:21:30;;;;;;;1.70;1.17;;;;;;;10.66;68.30;101566.44;6776691;26;19995;-78
2024/04/20 12:24:33;;;;;;;2.30;1.42;;;;;;;10.79;70.72;101573.84;6777237;26;20054;-77
2024/04/20 12:27:39;;;;;;;2.58;1.50;;;;;;;11.01;70.40;101577.28;6776961;26;19999;-78
2024/04/20 12:30:42;;;;;;;4.68;1.90;;;;;;;11.23;67.24;101573.75;6776682;26;20051;-78
2024/04/20 12:33:45;;;;;;;3.08;1.80;;;;;;;11.15;64.80;101567.03;6776466;26;19994;-78
2024/04/20 12:36:51;;;;;;;1.85;1.48;;;;;;;11.06;63.67;101570.06;6776588;26;20370;-77
2024/04/20 12:39:54;;;;;;;2.17;1.73;;;;;;;10.99;65.80;101571.25;6776510;26;20335;-78
2024/04/20 12:42:59;;;;;;;2.85;1.50;;;;;;;11.04;63.50;101568.44;6776356;26;19991;-77
2024/04/20 12:46:02;;;;;;;3.00;2.25;;;;;;;11.04;62.64;101571.91;6776301;26;20062;-78
2024/04/20 12:49:06;;;;;;;1.73;1.25;;;;;;;11.14;60.13;101569.75;6776342;26;19999;-78
2024/04/20 12:52:09;;;;;;;1.88;1.20;;;;;;;11.76;63.38;101565.25;6775796;26;19991;-78
2024/04/20 12:55:13;;;;;;;1.45;0.98;;;;;;;12.68;57.60;101564.47;6776638;26;20005;-78
2024/04/20 12:58:18;;;;;;;4.03;1.17;;;;;;;13.32;50.33;101566.56;6776245;26;19995;-77
2024/04/20 13:01:21;;;;;;;1.10;1.00;;;;;;;13.12;51.03;101556.13;6775997;26;20085;-78
2024/04/20 13:04:24;;;;;;;1.00;0.90;;;;;;;13.02;52.98;101557.50;6776145;26;20005;-78
2024/04/20 13:07:27;;;;;;;1.10;1.00;;;;;;;13.00;51.27;101554.13;6776427;26;19995;-78
2024/04/20 13:10:30;;;;;;;2.83;0.98;;;;;;;12.63;50.87;101551.53;6776113;26;19995;-79
2024/04/20 13:13:36;;;;;;;1.92;0.90;;;;;;;12.43;54.15;101552.47;6775925;26;20255;-79
2024/04/20 13:16:39;;;;;;;1.52;0.95;;;;;;;12.24;55.76;101562.19;6776104;26;19987;-78
2024/04/20 13:19:44;;;;;;;1.60;1.20;;;;;;;12.30;61.60;101569.78;6775839;26;20059;-78
2024/04/20 13:22:48;;;;;;;1.02;0.70;;;;;;;12.12;56.65;101570.66;6775525;26;20006;-78
2024/04/20 13:25:51;;;;;;;3.03;1.70;;;;;;;11.99;54.45;101570.41;6775336;26;20063;-78
2024/04/20 13:28:57;;;;;;;1.20;0.70;;;;;;;12.07;53.47;101568.25;6774814;26;19999;-78
2024/04/20 13:32:00;;;;;;;1.70;0.80;;;;;;;12.24;57.60;101563.97;6775500;26;19991;-78
2024/04/20 13:35:03;;;;;;;3.70;1.10;;;;;;;12.10;57.66;101567.25;6775617;26;20059;-78
2024/04/20 13:38:06;;;;;;;1.30;0.88;;;;;;;12.84;54.26;101562.78;6775345;26;20348;-78
2024/04/20 13:41:10;;;;;;;1.40;0.85;;;;;;;13.25;53.75;101569.56;6775567;26;19994;-78
2024/04/20 13:44:16;;;;;;;1.38;1.08;;;;;;;12.80;52.36;101563.00;6775520;26;19995;-78
2024/04/20 13:47:19;;;;;;;0.88;0.80;;;;;;;12.38;55.73;101553.63;6775332;26;20431;-78
2024/04/20 13:50:22;;;;;;;1.90;0.60;;;;;;;12.56;57.14;101559.78;6775137;26;20089;-78
2024/04/20 13:53:25;;;;;;;1.00;0.68;;;;;;;12.67;52.52;101568.03;6775202;26;20259;-78
2024/04/20 13:56:28;;;;;;;1.17;0.73;;;;;;;12.30;54.21;101563.69;6775084;26;19997;-79
2024/04/20 13:59:34;;;;;;;1.38;0.65;;;;;;;12.19;53.95;101567.69;6775022;26;20005;-78
2024/04/20 14:02:37;;;;;;;2.22;0.88;;;;;;;12.60;56.33;101567.47;6775131;26;20030;-77
2024/04/20 14:05:45;;;;;;;0.40;0.40;;;;;;;13.75;50.49;101561.63;6775218;26;20002;-77
2024/04/20 14:08:48;;;;;;;2.38;1.00;;;;;;;14.48;51.33;101564.69;6774878;26;19995;-78
2024/04/20 14:11:53;;;;;;;1.17;0.80;;;;;;;14.54;47.14;101561.72;6775084;26;20429;-77
2024/04/20 14:14:59;;;;;;;1.35;0.70;;;;;;;13.77;51.40;101562.44;6775272;26;20017;-77
2024/04/20 14:18:02;;;;;;;1.05;0.50;;;;;;;13.05;53.58;101558.22;6774957;26;19991;-77
2024/04/20 14:21:06;;;;;;;1.67;0.65;;;;;;;12.61;56.55;101561.28;6774880;26;19995;-77